createdAt,value
2023-02-27T00:01:57.831Z,73.30
2023-02-27T00:05:41.785Z,73.50
2023-02-27T00:09:37.197Z,73.60
2023-02-27T00:13:22.414Z,73.70
2023-02-27T00:17:04.155Z,73.70
2023-02-27T00:20:45.960Z,73.80
2023-02-27T00:24:31.052Z,73.90
2023-02-27T00:28:13.007Z,74.00
2023-02-27T00:31:55.087Z,74.00
2023-02-27T00:35:36.865Z,74.00
2023-02-27T00:39:18.587Z,74.00
2023-02-27T00:43:00.401Z,74.10
2023-02-27T00:46:42.235Z,74.20
2023-02-27T00:50:24.124Z,74.20
2023-02-27T00:54:05.950Z,74.20
2023-02-27T00:57:47.731Z,74.30
2023-02-27T01:01:29.495Z,74.30
2023-02-27T01:05:11.410Z,74.40
2023-02-27T01:08:53.113Z,74.50
2023-02-27T01:12:35.966Z,74.50
2023-02-27T01:16:17.758Z,74.50
2023-02-27T01:19:59.705Z,74.60
2023-02-27T01:23:41.502Z,74.60
2023-02-27T01:27:23.279Z,74.70
2023-02-27T01:31:05.204Z,74.80
2023-02-27T01:34:47.001Z,74.90
2023-02-27T01:38:28.851Z,75.50
2023-02-27T01:42:24.012Z,75.00
2023-02-27T01:46:05.899Z,75.50
2023-02-27T01:49:47.701Z,75.30
2023-02-27T01:53:32.685Z,75.30
2023-02-27T01:57:15.590Z,75.40
2023-02-27T02:00:57.514Z,75.30
2023-02-27T02:04:40.576Z,75.50
2023-02-27T02:08:24.703Z,75.60
2023-02-27T02:12:06.813Z,75.70
2023-02-27T02:16:13.512Z,75.70
2023-02-27T02:20:22.728Z,76.00
2023-02-27T02:24:45.905Z,76.20
2023-02-27T02:29:11.180Z,76.50
2023-02-27T02:33:11.498Z,76.70
2023-02-27T02:37:08.353Z,76.00
2023-02-27T02:41:00.004Z,76.30
2023-02-27T02:45:06.852Z,76.40
2023-02-27T02:48:55.143Z,76.90
2023-02-27T02:52:47.509Z,76.50
2023-02-27T02:56:35.081Z,76.70
2023-02-27T03:00:22.166Z,76.80
2023-02-27T03:04:06.742Z,76.70
2023-02-27T03:07:56.880Z,76.70
2023-02-27T03:11:43.891Z,77.00
2023-02-27T03:15:30.739Z,76.90
2023-02-27T03:19:15.753Z,77.10
2023-02-27T03:23:04.840Z,77.00
2023-02-27T03:26:49.279Z,77.30
2023-02-27T03:30:53.341Z,77.90
2023-02-27T03:34:37.681Z,77.50
2023-02-27T03:38:49.298Z,77.40
2023-02-27T03:43:21.441Z,78.30
2023-02-27T03:47:03.233Z,78.40
2023-02-27T03:50:45.186Z,77.30
2023-02-27T03:54:34.244Z,77.50
2023-02-27T03:58:16.129Z,78.10
2023-02-27T04:02:00.215Z,77.80
2023-02-27T04:05:42.336Z,77.90
2023-02-27T04:09:27.036Z,78.10
2023-02-27T04:13:26.968Z,78.10
2023-02-27T04:17:30.324Z,78.60
2023-02-27T04:21:57.840Z,79.20
2023-02-27T04:25:59.691Z,79.40
2023-02-27T04:30:10.532Z,78.90
2023-02-27T04:33:57.256Z,79.40
2023-02-27T04:37:50.155Z,79.00
2023-02-27T04:41:43.393Z,79.10
2023-02-27T04:45:27.475Z,79.20
2023-02-27T04:49:21.548Z,78.90
2023-02-27T04:53:11.804Z,79.30
2023-02-27T04:56:59.304Z,79.30
2023-02-27T05:00:46.266Z,79.40
2023-02-27T05:04:31.811Z,79.40
2023-02-27T05:08:38.937Z,79.60
2023-02-27T05:12:32.009Z,80.70
2023-02-27T05:16:19.408Z,80.10
2023-02-27T05:20:01.890Z,79.70
2023-02-27T05:23:46.372Z,79.60
2023-02-27T05:27:43.866Z,79.80
2023-02-27T05:31:33.069Z,79.70
2023-02-27T05:35:32.816Z,79.90
2023-02-27T05:39:16.023Z,80.70
2023-02-27T05:43:07.516Z,80.00
2023-02-27T05:47:01.954Z,80.60
2023-02-27T05:50:45.744Z,81.20
2023-02-27T05:54:53.496Z,80.40
2023-02-27T05:58:44.540Z,81.70
2023-02-27T06:02:26.783Z,81.40
2023-02-27T06:06:12.496Z,80.80
2023-02-27T06:09:54.252Z,81.20
2023-02-27T06:13:35.989Z,81.20
2023-02-27T06:17:17.994Z,81.30
2023-02-27T06:20:59.681Z,81.70
2023-02-27T06:24:41.407Z,81.90
2023-02-27T06:28:23.106Z,82.00
2023-02-27T06:32:04.940Z,82.00
2023-02-27T06:35:49.871Z,82.10
2023-02-27T06:39:32.716Z,82.40
2023-02-27T06:43:14.885Z,82.30
2023-02-27T06:46:56.625Z,82.50
2023-02-27T06:50:38.358Z,82.50
2023-02-27T06:54:20.239Z,82.50
2023-02-27T06:58:02.034Z,82.60
2023-02-27T07:01:43.835Z,82.70
2023-02-27T07:05:26.080Z,82.70
2023-02-27T07:09:07.915Z,82.70
2023-02-27T07:12:49.857Z,82.70
2023-02-27T07:16:31.617Z,82.80
2023-02-27T07:20:13.488Z,82.80
2023-02-27T07:23:55.280Z,82.90
2023-02-27T07:27:37.124Z,82.80
2023-02-27T07:31:18.887Z,82.60
2023-02-27T07:35:00.609Z,82.60
2023-02-27T07:38:42.375Z,82.70
2023-02-27T07:42:25.339Z,82.90
2023-02-27T07:46:07.304Z,83.20
2023-02-27T07:49:49.073Z,83.50
2023-02-27T07:53:30.854Z,83.70
2023-02-27T07:57:12.593Z,84.00
2023-02-27T08:00:54.930Z,84.20
2023-02-27T08:04:36.679Z,84.50
2023-02-27T08:08:18.568Z,84.80
2023-02-27T08:12:02.253Z,85.10
2023-02-27T08:15:44.030Z,85.50
2023-02-27T08:19:26.041Z,85.70
2023-02-27T08:23:08.876Z,86.60
2023-02-27T08:26:50.680Z,86.20
2023-02-27T08:30:32.442Z,86.40
2023-02-27T08:34:14.471Z,86.60
2023-02-27T08:37:56.169Z,87.00
2023-02-27T08:41:38.057Z,87.40
2023-02-27T08:45:19.811Z,87.50
2023-02-27T08:49:01.580Z,87.70
2023-02-27T08:52:43.293Z,87.90
2023-02-27T08:56:27.933Z,88.00
2023-02-27T09:00:10.774Z,88.20
2023-02-27T09:03:52.525Z,88.20
2023-02-27T09:07:34.598Z,88.20
2023-02-27T09:11:16.411Z,88.30
2023-02-27T09:14:58.132Z,88.40
2023-02-27T09:18:39.946Z,88.60
2023-02-27T09:22:21.774Z,89.10
2023-02-27T09:26:05.306Z,89.20
2023-02-27T09:29:47.133Z,89.40
2023-02-27T09:33:29.284Z,89.50
2023-02-27T09:37:11.102Z,89.80
2023-02-27T09:40:55.792Z,90.10
2023-02-27T09:44:47.120Z,90.70
2023-02-27T09:48:51.974Z,90.80
2023-02-27T09:52:36.669Z,91.70
2023-02-27T09:56:24.338Z,90.90
2023-02-27T10:00:18.844Z,90.70
2023-02-27T10:04:22.157Z,91.90
2023-02-27T10:08:30.680Z,92.00
2023-02-27T10:12:24.349Z,92.20
2023-02-27T10:16:09.354Z,91.80
2023-02-27T10:19:53.786Z,91.90
2023-02-27T10:23:53.635Z,91.20
2023-02-27T10:27:35.379Z,92.30
2023-02-27T10:31:30.149Z,91.30
2023-02-27T10:35:32.798Z,92.00
2023-02-27T10:39:18.331Z,92.50
2023-02-27T10:43:03.672Z,92.00
2023-02-27T10:46:50.605Z,92.00
2023-02-27T10:50:36.927Z,92.10
2023-02-27T10:54:18.637Z,91.90
2023-02-27T10:58:02.728Z,91.70
2023-02-27T11:01:48.885Z,91.70
2023-02-27T11:05:33.842Z,91.60
2023-02-27T11:09:23.305Z,91.70
2023-02-27T11:13:21.810Z,91.70
2023-02-27T11:17:21.197Z,91.60
2023-02-27T11:21:50.987Z,91.50
2023-02-27T11:25:33.972Z,92.00
2023-02-27T11:29:20.368Z,91.30
2023-02-27T11:33:02.837Z,91.30
2023-02-27T11:37:01.510Z,91.10
2023-02-27T11:40:50.895Z,90.90
2023-02-27T11:44:49.812Z,90.70
2023-02-27T11:48:59.968Z,90.60
2023-02-27T11:52:41.637Z,90.40
2023-02-27T11:56:28.315Z,90.30
2023-02-27T12:00:29.490Z,90.30
2023-02-27T12:04:19.800Z,90.20
2023-02-27T12:08:16.187Z,90.10
2023-02-27T12:12:00.337Z,89.50
2023-02-27T12:16:04.293Z,89.90
2023-02-27T12:19:55.130Z,88.80
2023-02-27T12:24:02.631Z,89.10
2023-02-27T12:27:59.096Z,88.50
2023-02-27T12:32:00.325Z,88.40
2023-02-27T12:35:44.619Z,88.60
2023-02-27T12:39:28.616Z,88.90
2023-02-27T12:43:41.645Z,88.80
2023-02-27T12:47:29.771Z,86.80
2023-02-27T12:51:34.361Z,87.60
2023-02-27T12:55:39.554Z,87.10
2023-02-27T12:59:57.839Z,86.00
2023-02-27T13:03:57.970Z,85.80
2023-02-27T13:07:55.039Z,86.40
2023-02-27T13:11:47.340Z,86.20
2023-02-27T13:15:43.625Z,85.50
2023-02-27T13:19:41.150Z,85.50
2023-02-27T13:23:31.873Z,85.40
2023-02-27T13:27:33.052Z,85.30
2023-02-27T13:31:27.192Z,84.50
2023-02-27T13:35:46.652Z,84.60
2023-02-27T13:39:46.991Z,84.60
2023-02-27T13:43:46.460Z,84.40
2023-02-27T13:47:46.865Z,84.20
2023-02-27T13:51:48.563Z,84.80
2023-02-27T13:55:36.915Z,83.40
2023-02-27T13:59:30.650Z,84.50
2023-02-27T14:03:21.964Z,83.00
2023-02-27T14:07:11.087Z,82.40
2023-02-27T14:11:02.656Z,82.50
2023-02-27T14:14:50.294Z,82.50
2023-02-27T14:18:51.193Z,82.90
2023-02-27T14:23:03.753Z,81.70
2023-02-27T14:26:46.702Z,82.20
2023-02-27T14:30:39.357Z,82.20
2023-02-27T14:34:22.846Z,82.10
2023-02-27T14:38:11.128Z,82.50
2023-02-27T14:42:12.885Z,82.50
2023-02-27T14:45:55.418Z,81.70
2023-02-27T14:49:37.879Z,82.40
2023-02-27T14:53:25.959Z,82.40
2023-02-27T14:57:07.909Z,81.70
2023-02-27T15:00:58.204Z,82.20
2023-02-27T15:04:40.423Z,81.80
2023-02-27T15:08:42.500Z,81.40
2023-02-27T15:12:26.122Z,80.30
2023-02-27T15:16:26.157Z,81.10
2023-02-27T15:20:30.108Z,80.20
2023-02-27T15:24:31.408Z,80.40
2023-02-27T15:28:27.729Z,79.50
2023-02-27T15:32:42.679Z,79.30
2023-02-27T15:36:33.516Z,78.60
2023-02-27T15:40:21.066Z,80.60
2023-02-27T15:44:04.592Z,79.50
2023-02-27T15:47:47.549Z,79.70
2023-02-27T15:51:30.181Z,78.70
2023-02-27T15:55:21.296Z,78.80
2023-02-27T15:59:04.645Z,78.50
2023-02-27T16:02:54.236Z,79.20
2023-02-27T16:06:39.630Z,78.60
2023-02-27T16:10:30.166Z,79.20
2023-02-27T16:14:44.415Z,78.50
2023-02-27T16:18:48.047Z,78.20
2023-02-27T16:22:30.505Z,78.50
2023-02-27T16:26:29.346Z,79.30
2023-02-27T16:30:12.260Z,78.70
2023-02-27T16:33:56.252Z,79.30
2023-02-27T16:37:40.660Z,79.20
2023-02-27T16:41:24.215Z,79.20
2023-02-27T16:45:07.661Z,79.30
2023-02-27T16:48:55.544Z,79.50
2023-02-27T16:52:37.304Z,79.70
2023-02-27T16:56:28.999Z,79.70
2023-02-27T17:00:18.961Z,79.70
2023-02-27T17:04:00.824Z,79.90
2023-02-27T17:07:43.014Z,80.00
2023-02-27T17:11:24.732Z,80.10
2023-02-27T17:15:06.981Z,80.20
2023-02-27T17:18:48.748Z,80.40
2023-02-27T17:22:30.468Z,80.30
2023-02-27T17:26:13.006Z,80.40
2023-02-27T17:29:54.728Z,80.40
2023-02-27T17:33:36.602Z,80.50
2023-02-27T17:37:18.384Z,80.50
2023-02-27T17:41:00.234Z,80.50
2023-02-27T17:44:44.883Z,80.50
2023-02-27T17:48:26.920Z,80.70
2023-02-27T17:52:09.293Z,80.80
2023-02-27T17:55:51.035Z,80.70
2023-02-27T17:59:33.227Z,80.70
2023-02-27T18:03:14.990Z,80.50
2023-02-27T18:06:56.786Z,80.60
2023-02-27T18:10:39.156Z,80.70
2023-02-27T18:14:20.993Z,80.90
2023-02-27T18:18:02.815Z,81.10
2023-02-27T18:21:47.160Z,81.20
2023-02-27T18:25:29.157Z,81.90
2023-02-27T18:29:12.268Z,81.40
2023-02-27T18:32:59.640Z,81.40
2023-02-27T18:36:41.403Z,81.50
2023-02-27T18:40:24.964Z,81.50
2023-02-27T18:44:07.764Z,81.50
2023-02-27T18:47:49.598Z,81.70
2023-02-27T18:51:31.648Z,81.60
2023-02-27T18:55:14.722Z,81.70
2023-02-27T18:59:01.790Z,81.70
2023-02-27T19:02:44.002Z,81.90
2023-02-27T19:06:27.050Z,81.80
2023-02-27T19:10:09.943Z,81.80
2023-02-27T19:13:51.957Z,81.80
2023-02-27T19:17:33.873Z,81.60
2023-02-27T19:21:16.063Z,81.40
2023-02-27T19:24:58.146Z,81.30
2023-02-27T19:28:39.875Z,81.20
2023-02-27T19:32:22.470Z,81.20
2023-02-27T19:36:14.953Z,81.00
2023-02-27T19:39:57.587Z,80.90
2023-02-27T19:43:40.668Z,80.90
2023-02-27T19:47:22.450Z,80.80
2023-02-27T19:51:05.982Z,80.80
2023-02-27T19:54:47.712Z,80.80
2023-02-27T19:58:30.822Z,80.70
2023-02-27T20:02:14.526Z,80.70
2023-02-27T20:05:56.701Z,80.70
2023-02-27T20:09:38.419Z,80.80
2023-02-27T20:13:20.164Z,80.70
2023-02-27T20:17:01.999Z,80.80
2023-02-27T20:20:43.777Z,80.90
2023-02-27T20:24:27.279Z,80.90
2023-02-27T20:28:08.937Z,80.80
2023-02-27T20:31:52.616Z,81.20
2023-02-27T20:35:37.686Z,80.60
2023-02-27T20:39:20.349Z,80.80
2023-02-27T20:43:03.984Z,80.70
2023-02-27T20:46:49.279Z,80.80
2023-02-27T20:50:31.355Z,80.90
2023-02-27T20:54:16.650Z,80.90
2023-02-27T20:57:58.697Z,81.10
2023-02-27T21:01:41.881Z,81.10
2023-02-27T21:05:23.594Z,81.10
2023-02-27T21:09:06.538Z,81.10
2023-02-27T21:12:48.261Z,81.20
2023-02-27T21:16:30.272Z,81.20
2023-02-27T21:20:12.638Z,81.30
2023-02-27T21:23:54.459Z,81.30
2023-02-27T21:27:36.223Z,81.30
2023-02-27T21:31:19.994Z,81.40
2023-02-27T21:35:05.489Z,81.50
2023-02-27T21:38:48.559Z,81.60
2023-02-27T21:42:32.073Z,81.60
2023-02-27T21:46:13.999Z,81.80
2023-02-27T21:49:56.730Z,81.80
2023-02-27T21:53:41.571Z,81.90
2023-02-27T21:57:23.671Z,82.00
2023-02-27T22:01:22.785Z,82.10
2023-02-27T22:05:08.883Z,82.90
2023-02-27T22:09:02.088Z,82.20
2023-02-27T22:12:48.194Z,82.60
2023-02-27T22:16:30.214Z,82.10
2023-02-27T22:20:12.442Z,82.00
2023-02-27T22:23:56.883Z,82.10
2023-02-27T22:27:40.104Z,82.30
2023-02-27T22:31:30.526Z,82.30
2023-02-27T22:35:13.471Z,82.80
2023-02-27T22:38:55.651Z,82.40
2023-02-27T22:42:37.499Z,82.60
2023-02-27T22:46:28.818Z,82.60
2023-02-27T22:50:11.728Z,83.20
2023-02-27T22:53:56.640Z,82.80
2023-02-27T22:57:38.736Z,83.00
2023-02-27T23:01:24.492Z,82.90
2023-02-27T23:05:06.802Z,83.40
2023-02-27T23:08:51.311Z,83.20
2023-02-27T23:12:33.440Z,83.30
2023-02-27T23:16:16.179Z,83.60
2023-02-27T23:19:57.962Z,83.80
2023-02-27T23:23:39.757Z,83.90
2023-02-27T23:27:26.276Z,83.90
2023-02-27T23:31:12.324Z,84.20
2023-02-27T23:34:57.124Z,84.90
2023-02-27T23:38:39.693Z,84.90
2023-02-27T23:42:21.451Z,84.60
2023-02-27T23:46:11.928Z,84.70
2023-02-27T23:49:53.671Z,85.40
2023-02-27T23:53:37.097Z,84.80
2023-02-27T23:57:19.106Z,85.10
